LTAR Airport Information

Runway Information
Runway 01 Length 12503 ft width 98 ft
Elevation 5236 ft Threshold 0 ft Heading 18
Runway 19 Length 12503 ft Width 98 ft
Elevation 5181 ft Threshold 0 ft Heading 198
Airport Frequencies
Type GND Name GND Frequency 121.9 MHZ
Type TWR Name TWR Frequency 118.1 MHZ
Airport Navaids
Type VOR-DME Name Sivas Frequency 114200 KHZ
Type NDB Name Sivas Frequency 310 KHZ
Airport Weather Information & NOTAM
ADDS - METARS form results

(1734 UTC 18 March 2019)
Data provider http://aviationweather.gov/metar/data/
 
METAR text: LTAR 181650Z 26003KT CAVOK 02/M01 Q1019
Conditions at: LTAR (SIVAS (CIV/MIL) , TR) observed 1650 UTC 18 March 2019
Temperature: 2.0°C (36°F)
Dewpoint: -1.0°C (30°F) [RH = 80%]
Pressure (altimeter): 30.09 inches Hg (1019.0 mb)
Winds: from the W (260 degrees) at 3 MPH (3 knots; 1.5 m/s)
Visibility: 6 or more miles (10+ km)
Ceiling: ceiling and visibility are OK
Clouds: unknown
Weather: no significant weather observed at this time

Forecast for: LTAR (SIVAS (CIV/MIL) , TR)
Text: TAF LTAR 181640Z 1818/1903 32008KT CAVOK
Forecast period: 1800 UTC 18 March 2019 to 0300 UTC 19 March 2019
Forecast type: FROM: standard forecast or significant change
Winds: from the NW (320 degrees) at 9 MPH (8 knots; 4.1 m/s)
Visibility: 6 or more miles 10+ km)
Ceiling: unknown
Clouds: missing
Weather: NSW  (no significant weather)